Airfield :
LOGIN :

Register | Disclaimer

   EN    FR    IT 

 










Legend :    VFR   Marginal VFR   IFR   Intensive IFR   Very Intensive IFR
Visi :
Ceiling :
>= 8 km
>= 3000ft
5 to 8 km
1000 to 3000 ft
1500m to 5 km
500 to 1000 ft
800 to 1500m
200 to 500 ft
< 800m
< 200 ft
Symbols :   Thunderstorms  Fog  Heavy snow  Heavy precipitations  Wind > 20 kt
SIGMETs :     Misc.  Thunderstorms  Icing  Turbulence  Mountain Waves  Volcanic Ashes







- Airport Elevation : 288 ft
- IATA code : BZZ


EGVN - RAF Brize Norton

CURRENT METAR :
  • 231350Z 22009G21KT 9999 BKN016 13/10 Q1011 WHT NOSIG

EXPIRED METARs :
  • 231250Z 23011KT 9999 SCT015 BKN034 14/10 Q1011 NOSIG
  • 231150Z 22012G22KT 9999 BKN012 13/10 Q1012 NOSIG

TAF TAF EGVN
Valid from the 23 at 12:00 until the 24 at 12:00 UTC


231028Z 2312/2412 23012KT 9999 BKN014
PROB40
TEMPO 2312/2318 24015G25KT SCT015
TEMPO 2318/2410 BKN018
BECMG 2400/2403 20015G25KT
PROB30
TEMPO 2402/2410 21025G38KT
BECMG 2410/2412 24015G25KT
PROB30
TEMPO 2410/2412 25025G42KT 4000 RA SCT006
No reported NOTAMs for that airfield.
1 SIGMET reported for the London FIR (EGTT) :
 
Severe mountain waves
EGTT SIGMET 01 VALID 231130/231530 EGRR
EGTT LONDON FIR SEV MTW FCST WI N4914 W00600 - N5500 W00455 - N5500 E00030 - N4950 W00240 - N4914 W00600 SFC/FL150 STNR NC=



MET'MAP, your aeronautical weather chart ! - Copyright ORBIFLY December 2007 - Disclaimer

ORBIFLY MET'MAP TEAM :

Programming & Development : Alexandra Zaïnal
Concept & Development : Baudouin d'Aumeries
Co-Development & Prog : Marc-Olivier Méhu
Technical & hardware support : Manuel Goepfert

Contact : metmap@orbifly.com




SOURCES & CREDITS :

   NOAA